createdAt,value
2023-04-14T00:00:42.400Z,3.03
2023-04-14T00:05:51.543Z,3.00
2023-04-14T00:08:18.582Z,2.17
2023-04-14T00:10:45.641Z,3.38
2023-04-14T00:13:12.706Z,2.47
2023-04-14T00:15:43.583Z,2.08
2023-04-14T00:18:21.265Z,2.17
2023-04-14T00:20:50.206Z,2.35
2023-04-14T00:23:18.382Z,2.42
2023-04-14T00:25:45.429Z,2.47
2023-04-14T00:28:12.533Z,2.63
2023-04-14T00:30:39.597Z,2.80
2023-04-14T00:41:43.310Z,3.22
2023-04-14T00:44:10.453Z,2.60
2023-04-14T00:46:37.559Z,1.90
2023-04-14T00:49:05.086Z,2.70
2023-04-14T00:51:32.373Z,2.80
2023-04-14T00:53:59.453Z,2.60
2023-04-14T00:56:26.523Z,2.78
2023-04-14T00:58:54.156Z,2.67
2023-04-14T01:01:21.397Z,2.15
2023-04-14T01:03:55.335Z,2.50
2023-04-14T01:06:22.677Z,2.22
2023-04-14T01:08:50.766Z,1.90
2023-04-14T01:11:20.607Z,2.38
2023-04-14T01:13:58.555Z,2.10
2023-04-14T01:16:29.501Z,1.75
2023-04-14T01:19:03.112Z,1.95
2023-04-14T01:21:35.442Z,2.72
2023-04-14T01:24:09.147Z,2.15
2023-04-14T01:26:36.540Z,1.90
2023-04-14T01:29:03.723Z,2.03
2023-04-14T01:31:32.037Z,2.20
2023-04-14T01:36:33.873Z,1.83
2023-04-14T01:39:07.188Z,2.60
2023-04-14T01:41:34.988Z,1.92
2023-04-14T01:44:02.477Z,2.00
2023-04-14T01:46:29.506Z,2.33
2023-04-14T01:48:57.031Z,2.28
2023-04-14T01:51:24.762Z,2.25
2023-04-14T01:53:58.437Z,2.33
2023-04-14T01:56:26.637Z,2.63
2023-04-14T01:58:55.501Z,2.75
2023-04-14T02:01:22.858Z,2.97
2023-04-14T02:03:52.539Z,2.38
2023-04-14T02:06:21.541Z,2.67
2023-04-14T02:11:25.037Z,2.35
2023-04-14T02:13:53.341Z,2.70
2023-04-14T02:16:20.634Z,2.90
2023-04-14T02:18:48.436Z,2.60
2023-04-14T02:21:17.221Z,2.33
2023-04-14T02:23:44.400Z,2.63
2023-04-14T02:26:13.721Z,2.95
2023-04-14T02:28:43.916Z,2.72
2023-04-14T02:31:13.200Z,3.05
2023-04-14T02:33:40.584Z,2.35
2023-04-14T02:36:22.876Z,2.85
2023-04-14T02:38:55.836Z,2.55
2023-04-14T02:44:15.171Z,2.17
2023-04-14T02:46:43.180Z,2.50
2023-04-14T02:49:13.268Z,2.78
2023-04-14T02:51:41.327Z,2.80
2023-04-14T02:54:08.804Z,2.53
2023-04-14T02:56:41.549Z,2.50
2023-04-14T02:59:08.809Z,2.40
2023-04-14T03:01:36.432Z,2.28
2023-04-14T03:04:03.708Z,3.80
2023-04-14T03:06:31.718Z,2.28
2023-04-14T03:09:00.449Z,2.58
2023-04-14T03:11:43.510Z,2.30
2023-04-14T03:14:11.590Z,3.35
2023-04-14T03:16:39.545Z,2.30
2023-04-14T03:19:08.164Z,2.60
2023-04-14T03:21:35.835Z,2.28
2023-04-14T03:24:04.570Z,2.30
2023-04-14T03:26:42.644Z,3.10
2023-04-14T03:29:10.073Z,2.58
2023-04-14T03:31:37.759Z,2.30
2023-04-14T03:34:05.772Z,2.92
2023-04-14T03:36:33.471Z,2.80
2023-04-14T03:39:01.666Z,2.50
2023-04-14T03:41:39.546Z,2.60
2023-04-14T03:44:07.124Z,2.50
2023-04-14T03:46:34.256Z,2.80
2023-04-14T03:49:06.573Z,2.35
2023-04-14T03:51:34.018Z,2.30
2023-04-14T03:54:02.159Z,2.58
2023-04-14T03:56:35.018Z,2.30
2023-04-14T03:59:03.088Z,4.00
2023-04-14T04:01:30.817Z,3.10
2023-04-14T04:04:02.149Z,2.53
2023-04-14T04:06:29.268Z,3.60
2023-04-14T04:08:56.719Z,2.92
2023-04-14T04:17:09.643Z,2.80
2023-04-14T04:19:37.211Z,2.95
2023-04-14T04:22:04.889Z,3.42
2023-04-14T04:24:33.926Z,2.50
2023-04-14T04:27:01.326Z,2.60
2023-04-14T04:29:28.581Z,2.58
2023-04-14T04:31:56.163Z,3.92
2023-04-14T04:34:23.840Z,2.83
2023-04-14T04:36:51.356Z,2.90
2023-04-14T04:39:18.422Z,3.38
2023-04-14T04:41:46.080Z,2.85
2023-04-14T04:47:23.148Z,3.33
2023-04-14T04:49:50.226Z,3.22
2023-04-14T04:52:17.309Z,3.03
2023-04-14T04:54:45.298Z,3.50
2023-04-14T04:57:12.386Z,2.88
2023-04-14T04:59:39.797Z,3.03
2023-04-14T05:04:46.530Z,3.08
2023-04-14T05:07:13.573Z,3.97
2023-04-14T05:09:40.686Z,3.92
2023-04-14T05:12:07.691Z,3.20
2023-04-14T05:14:34.750Z,3.65
2023-04-14T05:22:41.458Z,3.33
2023-04-14T05:25:08.650Z,3.67
2023-04-14T05:27:35.823Z,4.03
2023-04-14T05:30:02.949Z,4.32
2023-04-14T05:32:30.002Z,3.95
2023-04-14T05:37:38.186Z,4.25
2023-04-14T05:40:05.978Z,4.30
2023-04-14T05:42:33.040Z,4.28
2023-04-14T05:47:54.908Z,4.13
2023-04-14T05:50:26.288Z,3.55
2023-04-14T05:56:11.608Z,3.83
2023-04-14T05:58:38.659Z,2.75
2023-04-14T06:01:07.054Z,3.75
2023-04-14T06:03:35.080Z,3.40
2023-04-14T06:06:04.708Z,3.00
2023-04-14T06:08:31.818Z,2.90
2023-04-14T06:13:32.471Z,3.50
2023-04-14T06:16:01.350Z,3.00
2023-04-14T06:18:28.483Z,3.63
2023-04-14T06:20:55.523Z,3.22
2023-04-14T06:23:22.643Z,2.58
2023-04-14T06:26:02.868Z,3.15
2023-04-14T06:28:29.911Z,2.88
2023-04-14T06:30:57.060Z,3.65
2023-04-14T06:33:24.175Z,3.22
2023-04-14T06:35:51.265Z,3.47
2023-04-14T06:38:18.337Z,2.80
2023-04-14T06:46:24.963Z,2.55
2023-04-14T06:48:52.037Z,3.13
2023-04-14T06:51:19.095Z,4.35
2023-04-14T06:53:46.123Z,3.45
2023-04-14T06:56:13.149Z,3.33
2023-04-14T06:59:05.778Z,4.57
2023-04-14T07:01:32.967Z,3.40
2023-04-14T07:04:00.209Z,3.70
2023-04-14T07:06:27.367Z,3.47
2023-04-14T07:08:55.933Z,3.58
2023-04-14T07:11:23.016Z,4.28
2023-04-14T07:13:53.823Z,4.40
2023-04-14T07:16:20.933Z,5.93
2023-04-14T07:18:48.078Z,4.38
2023-04-14T07:21:15.177Z,4.35
2023-04-14T07:23:42.222Z,4.68
2023-04-14T07:26:09.248Z,4.53
2023-04-14T07:34:20.685Z,4.13
2023-04-14T07:36:47.796Z,4.15
2023-04-14T07:39:14.828Z,3.88
2023-04-14T07:41:41.810Z,3.97
2023-04-14T07:44:08.887Z,4.32
2023-04-14T07:52:10.663Z,3.60
2023-04-14T07:54:37.746Z,3.40
2023-04-14T07:57:04.959Z,2.92
2023-04-14T07:59:32.016Z,4.72
2023-04-14T08:01:59.208Z,2.90
2023-04-14T08:07:39.830Z,3.33
2023-04-14T08:10:07.396Z,3.60
2023-04-14T08:12:35.772Z,2.63
2023-04-14T08:15:09.812Z,3.17
2023-04-14T08:17:37.536Z,2.55
2023-04-14T08:20:04.744Z,2.20
2023-04-14T08:22:38.320Z,3.65
2023-04-14T08:25:05.555Z,2.47
2023-04-14T08:27:32.651Z,2.70
2023-04-14T08:29:59.868Z,2.72
2023-04-14T08:32:28.650Z,2.45
2023-04-14T08:35:39.630Z,1.80
2023-04-14T08:37:43.324Z,1.70
2023-04-14T08:40:11.305Z,2.65
2023-04-14T08:42:38.735Z,1.85
2023-04-14T08:45:06.122Z,2.13
2023-04-14T08:47:35.690Z,2.15
2023-04-14T08:50:08.010Z,2.50
2023-04-14T08:52:36.308Z,2.30
2023-04-14T08:55:04.687Z,2.63
2023-04-14T08:57:32.454Z,2.45
2023-04-14T09:00:00.262Z,2.00
2023-04-14T09:02:28.019Z,2.80
2023-04-14T09:04:57.383Z,1.75
2023-04-14T09:09:56.485Z,1.48
2023-04-14T09:12:23.911Z,1.73
2023-04-14T09:14:51.238Z,1.63
2023-04-14T09:17:18.531Z,1.55
2023-04-14T09:20:35.654Z,1.88
2023-04-14T09:22:35.647Z,2.25
2023-04-14T09:25:07.083Z,2.50
2023-04-14T09:27:52.282Z,1.50
2023-04-14T09:30:19.362Z,1.33
2023-04-14T09:32:46.671Z,1.33
2023-04-14T09:35:14.620Z,1.98
2023-04-14T09:37:45.302Z,1.60
2023-04-14T09:40:19.770Z,1.40
2023-04-14T09:42:47.029Z,1.65
2023-04-14T09:45:14.379Z,1.67
2023-04-14T09:47:41.442Z,1.35
2023-04-14T09:50:11.825Z,1.70
2023-04-14T09:57:51.875Z,1.17
2023-04-14T10:00:21.474Z,1.90
2023-04-14T10:03:01.545Z,1.27
2023-04-14T10:07:56.845Z,2.15
2023-04-14T10:10:23.876Z,1.00
2023-04-14T10:15:39.244Z,1.48
2023-04-14T10:18:06.961Z,2.80
2023-04-14T10:20:35.164Z,1.30
2023-04-14T10:23:02.816Z,1.30
2023-04-14T10:25:31.795Z,1.50
2023-04-14T10:30:43.318Z,1.90
2023-04-14T10:33:10.489Z,1.10
2023-04-14T10:35:44.056Z,1.15
2023-04-14T10:38:12.437Z,1.65
2023-04-14T10:40:52.126Z,1.20
2023-04-14T10:43:19.399Z,0.95
2023-04-14T10:48:36.246Z,1.05
2023-04-14T10:51:05.239Z,1.77
2023-04-14T10:53:58.493Z,1.48
2023-04-14T10:56:26.632Z,1.50
2023-04-14T11:01:31.852Z,1.13
2023-04-14T11:06:36.636Z,1.20
2023-04-14T11:09:22.281Z,1.30
2023-04-14T11:11:49.380Z,1.40
2023-04-14T11:14:16.614Z,1.20
2023-04-14T11:16:54.226Z,1.40
2023-04-14T11:19:30.718Z,1.33
2023-04-14T11:21:57.859Z,1.20
2023-04-14T11:24:26.530Z,0.93
2023-04-14T11:26:57.214Z,1.45
2023-04-14T11:29:24.554Z,1.80
2023-04-14T11:32:01.604Z,1.92
2023-04-14T11:34:28.769Z,1.58
2023-04-14T11:36:56.040Z,1.20
2023-04-14T11:39:23.618Z,1.38
2023-04-14T11:41:51.279Z,1.02
2023-04-14T11:44:19.600Z,1.00
2023-04-14T11:46:46.947Z,1.42
2023-04-14T11:49:13.982Z,1.00
2023-04-14T11:51:41.031Z,1.88
2023-04-14T11:54:08.180Z,0.93
2023-04-14T11:56:35.565Z,1.17
2023-04-14T11:59:03.404Z,0.90
2023-04-14T12:01:32.098Z,0.70
2023-04-14T12:03:59.624Z,0.73
2023-04-14T12:06:27.418Z,0.80
2023-04-14T12:08:55.124Z,0.90
2023-04-14T12:11:23.628Z,0.93
2023-04-14T12:13:52.696Z,0.60
2023-04-14T12:16:19.956Z,0.77
2023-04-14T12:18:47.112Z,0.90
2023-04-14T12:21:20.282Z,0.75
2023-04-14T12:23:50.602Z,1.30
2023-04-14T12:28:45.015Z,1.20
2023-04-14T12:31:12.168Z,1.13
2023-04-14T12:36:14.054Z,0.90
2023-04-14T12:38:41.501Z,1.50
2023-04-14T12:41:08.991Z,1.38
2023-04-14T12:43:37.072Z,1.83
2023-04-14T12:46:04.604Z,1.10
2023-04-14T12:51:12.567Z,1.48
2023-04-14T12:53:40.100Z,1.10
2023-04-14T12:56:22.561Z,1.48
2023-04-14T12:58:51.005Z,1.58
2023-04-14T13:01:20.578Z,1.67
2023-04-14T13:03:52.238Z,1.30
2023-04-14T13:09:02.414Z,1.08
2023-04-14T13:11:31.174Z,1.40
2023-04-14T13:13:58.264Z,1.17
2023-04-14T13:16:26.610Z,1.05
2023-04-14T13:18:54.885Z,1.30
2023-04-14T13:23:58.564Z,1.05
2023-04-14T13:26:25.626Z,1.02
2023-04-14T13:28:52.661Z,1.25
2023-04-14T13:31:19.682Z,1.67
2023-04-14T13:33:46.726Z,1.08
2023-04-14T13:36:29.070Z,1.63
2023-04-14T13:38:56.508Z,1.00
2023-04-14T13:41:24.491Z,1.13
2023-04-14T13:43:51.498Z,1.10
2023-04-14T13:46:19.304Z,1.30
2023-04-14T13:53:56.141Z,0.90
2023-04-14T13:56:25.771Z,1.05
2023-04-14T13:58:53.050Z,1.10
2023-04-14T14:01:20.436Z,0.90
2023-04-14T14:03:48.331Z,1.50
2023-04-14T14:11:48.701Z,1.00
2023-04-14T14:14:15.817Z,0.80
2023-04-14T14:16:43.011Z,0.93
2023-04-14T14:19:15.063Z,0.60
2023-04-14T14:21:44.548Z,0.63
2023-04-14T14:24:18.541Z,0.80
2023-04-14T14:26:45.568Z,1.05
2023-04-14T14:29:12.832Z,1.02
2023-04-14T14:31:40.102Z,1.08
2023-04-14T14:34:07.894Z,1.23
2023-04-14T14:36:35.278Z,1.02
2023-04-14T14:41:42.529Z,1.00
2023-04-14T14:44:09.568Z,0.93
2023-04-14T14:46:36.730Z,0.77
2023-04-14T14:49:04.159Z,0.70
2023-04-14T14:51:31.720Z,1.00
2023-04-14T14:59:37.994Z,1.00
2023-04-14T15:02:05.085Z,0.98
2023-04-14T15:04:32.338Z,0.80
2023-04-14T15:06:59.383Z,0.70
2023-04-14T15:09:26.390Z,0.68
2023-04-14T15:12:06.480Z,0.57
2023-04-14T15:14:33.546Z,0.80
2023-04-14T15:17:00.762Z,0.70
2023-04-14T15:19:27.943Z,0.80
2023-04-14T15:21:54.987Z,0.60
2023-04-14T15:24:22.099Z,1.25
2023-04-14T15:29:31.925Z,1.25
2023-04-14T15:31:58.993Z,0.88
2023-04-14T15:34:27.091Z,0.73
2023-04-14T15:36:54.143Z,0.82
2023-04-14T15:39:21.362Z,1.15
2023-04-14T15:42:01.514Z,0.95
2023-04-14T15:46:55.638Z,1.10
2023-04-14T15:49:23.082Z,0.75
2023-04-14T15:51:50.631Z,0.98
2023-04-14T15:54:17.703Z,0.90
2023-04-14T15:59:26.579Z,0.70
2023-04-14T16:01:53.863Z,0.80
2023-04-14T16:04:21.139Z,0.80
2023-04-14T16:06:48.255Z,1.05
2023-04-14T16:09:15.289Z,0.80
2023-04-14T16:11:42.336Z,0.77
2023-04-14T16:14:09.561Z,0.98
2023-04-14T16:16:36.682Z,0.50
2023-04-14T16:19:03.844Z,0.70
2023-04-14T16:21:31.091Z,0.70
2023-04-14T16:23:58.118Z,0.90
2023-04-14T16:26:25.125Z,0.50
2023-04-14T16:28:52.564Z,0.50
2023-04-14T16:31:19.701Z,0.60
2023-04-14T16:33:46.877Z,0.55
2023-04-14T16:36:13.908Z,0.80
2023-04-14T16:38:40.909Z,0.80
2023-04-14T16:41:08.228Z,0.80
2023-04-14T16:43:35.307Z,1.00
2023-04-14T16:46:03.355Z,0.70
2023-04-14T16:48:30.807Z,0.60
2023-04-14T16:50:57.900Z,0.60
2023-04-14T16:53:25.142Z,0.65
2023-04-14T16:55:53.669Z,0.40
2023-04-14T16:58:20.758Z,0.57
2023-04-14T17:00:47.761Z,0.55
2023-04-14T17:03:14.958Z,0.80
2023-04-14T17:05:43.407Z,1.20
2023-04-14T17:08:12.170Z,0.60
2023-04-14T17:10:42.390Z,0.60
2023-04-14T17:13:09.424Z,0.63
2023-04-14T17:15:37.373Z,0.90
2023-04-14T17:18:04.568Z,0.75
2023-04-14T17:20:40.359Z,0.70
2023-04-14T17:23:08.406Z,0.82
2023-04-14T17:25:39.423Z,0.82
2023-04-14T17:28:06.520Z,1.00
2023-04-14T17:30:34.831Z,0.93
2023-04-14T17:33:03.656Z,0.95
2023-04-14T17:35:37.398Z,0.75
2023-04-14T17:38:04.497Z,0.90
2023-04-14T17:40:31.618Z,0.95
2023-04-14T17:42:58.942Z,1.30
2023-04-14T17:45:26.685Z,0.85
2023-04-14T17:47:53.981Z,0.95
2023-04-14T17:50:33.414Z,0.80
2023-04-14T17:53:00.449Z,0.68
2023-04-14T17:55:28.294Z,0.70
2023-04-14T17:57:56.247Z,0.70
2023-04-14T18:00:23.568Z,0.90
2023-04-14T18:02:50.719Z,1.20
2023-04-14T18:07:57.584Z,1.40
2023-04-14T18:10:24.816Z,0.90
2023-04-14T18:12:52.064Z,1.00
2023-04-14T18:15:19.676Z,1.00
2023-04-14T18:17:46.967Z,1.30
2023-04-14T18:22:54.648Z,1.42
2023-04-14T18:25:21.695Z,1.20
2023-04-14T18:30:18.730Z,0.85
2023-04-14T18:32:46.263Z,1.05
2023-04-14T18:37:52.134Z,0.90
2023-04-14T18:40:20.321Z,0.93
2023-04-14T18:42:48.902Z,1.40
2023-04-14T18:45:16.024Z,1.25
2023-04-14T18:47:43.252Z,1.85
2023-04-14T18:52:47.654Z,1.60
2023-04-14T18:55:14.799Z,2.45
2023-04-14T18:57:42.781Z,1.70
2023-04-14T19:00:10.119Z,2.22
2023-04-14T19:02:37.458Z,1.95
2023-04-14T19:07:44.592Z,1.63
2023-04-14T19:10:11.618Z,1.40
2023-04-14T19:12:40.525Z,1.95
2023-04-14T19:15:07.894Z,2.10
2023-04-14T19:17:34.993Z,1.67
2023-04-14T19:22:41.240Z,2.92
2023-04-14T19:25:08.590Z,2.22
2023-04-14T19:27:38.443Z,3.03
2023-04-14T19:30:06.777Z,4.00
2023-04-14T19:32:34.269Z,2.85
2023-04-14T19:37:38.520Z,2.88
2023-04-14T19:40:06.870Z,2.55
2023-04-14T19:42:34.113Z,2.42
2023-04-14T19:45:01.260Z,2.20
2023-04-14T19:47:28.573Z,3.03
2023-04-14T19:52:33.557Z,3.40
2023-04-14T19:55:01.357Z,3.42
2023-04-14T19:57:28.626Z,3.08
2023-04-14T19:59:55.595Z,2.63
2023-04-14T20:10:31.777Z,2.25
2023-04-14T20:12:58.906Z,2.15
2023-04-14T20:15:26.175Z,1.65
2023-04-14T20:17:53.251Z,2.85
2023-04-14T20:25:38.600Z,2.38
2023-04-14T20:28:06.131Z,2.58
2023-04-14T20:30:33.198Z,3.15
2023-04-14T20:33:01.149Z,3.30
2023-04-14T20:35:28.189Z,3.33
2023-04-14T20:40:30.104Z,3.03
2023-04-14T20:45:44.348Z,5.30
2023-04-14T20:50:58.022Z,4.90
2023-04-14T20:53:27.024Z,3.72
2023-04-14T20:58:29.431Z,3.88
2023-04-14T21:08:53.376Z,3.65
2023-04-14T21:11:20.394Z,4.18
2023-04-14T21:15:26.615Z,3.83
2023-04-14T21:22:15.839Z,3.65
2023-04-14T21:24:48.191Z,3.63
2023-04-14T21:27:16.665Z,4.38
2023-04-14T21:29:44.061Z,3.15
2023-04-14T21:32:11.355Z,4.25
2023-04-14T21:34:46.124Z,4.05
2023-04-14T21:37:16.184Z,3.65
2023-04-14T21:39:43.194Z,3.88
2023-04-14T21:42:10.656Z,3.90
2023-04-14T21:44:37.742Z,3.75
2023-04-14T21:47:04.842Z,3.50
2023-04-14T21:52:41.236Z,4.53
2023-04-14T21:55:09.151Z,3.50
2023-04-14T21:57:48.652Z,3.83
2023-04-14T22:02:45.662Z,4.45
2023-04-14T22:05:13.377Z,4.22
2023-04-14T22:07:41.140Z,3.75
2023-04-14T22:10:08.384Z,3.55
2023-04-14T22:25:11.636Z,3.60
2023-04-14T22:38:36.154Z,4.20
2023-04-14T22:41:03.274Z,3.65
2023-04-14T22:46:01.225Z,3.97
2023-04-14T22:48:28.266Z,4.10
2023-04-14T22:56:11.477Z,3.40
2023-04-14T22:58:41.599Z,3.65
2023-04-14T23:03:57.762Z,3.25
2023-04-14T23:09:08.154Z,3.42
2023-04-14T23:11:35.263Z,3.60
2023-04-14T23:14:02.771Z,3.83
2023-04-14T23:16:29.988Z,3.60
2023-04-14T23:18:57.468Z,3.58
2023-04-14T23:21:25.040Z,3.17
2023-04-14T23:23:52.467Z,3.28
2023-04-14T23:39:51.240Z,5.10
2023-04-14T23:42:18.290Z,3.90
2023-04-14T23:44:45.759Z,3.90
2023-04-14T23:55:15.119Z,2.95
2023-04-14T23:57:42.538Z,3.08
